sensor_id;sensor_type;location;lat;lon;timestamp;P1;durP1;ratioP1;P2;durP2;ratioP2
13250;SDS011;6692;50.710;7.180;2023-05-18T00:01:56;3.67;;;3.37;;
13250;SDS011;6692;50.710;7.180;2023-05-18T00:03:56;7.40;;;4.00;;
13250;SDS011;6692;50.710;7.180;2023-05-18T00:05:57;5.50;;;3.97;;
13250;SDS011;6692;50.710;7.180;2023-05-18T00:07:59;5.67;;;4.33;;
13250;SDS011;6692;50.710;7.180;2023-05-18T00:09:59;4.63;;;3.67;;
13250;SDS011;6692;50.710;7.180;2023-05-18T00:12:00;4.23;;;3.77;;
13250;SDS011;6692;50.710;7.180;2023-05-18T00:14:01;4.33;;;3.80;;
13250;SDS011;6692;50.710;7.180;2023-05-18T00:16:03;5.10;;;3.77;;
13250;SDS011;6692;50.710;7.180;2023-05-18T00:18:04;6.17;;;3.53;;
13250;SDS011;6692;50.710;7.180;2023-05-18T00:20:05;6.20;;;4.27;;
13250;SDS011;6692;50.710;7.180;2023-05-18T00:22:06;5.03;;;4.10;;
13250;SDS011;6692;50.710;7.180;2023-05-18T00:24:08;4.60;;;4.10;;
13250;SDS011;6692;50.710;7.180;2023-05-18T00:26:09;5.20;;;3.80;;
13250;SDS011;6692;50.710;7.180;2023-05-18T00:28:10;5.47;;;3.70;;
13250;SDS011;6692;50.710;7.180;2023-05-18T00:30:11;5.27;;;3.90;;
13250;SDS011;6692;50.710;7.180;2023-05-18T00:32:12;5.77;;;3.97;;
13250;SDS011;6692;50.710;7.180;2023-05-18T00:34:14;7.17;;;4.17;;
13250;SDS011;6692;50.710;7.180;2023-05-18T00:36:14;4.23;;;3.77;;
13250;SDS011;6692;50.710;7.180;2023-05-18T00:38:15;4.10;;;3.57;;
13250;SDS011;6692;50.710;7.180;2023-05-18T00:40:16;3.90;;;3.50;;
13250;SDS011;6692;50.710;7.180;2023-05-18T00:42:16;3.40;;;3.10;;
13250;SDS011;6692;50.710;7.180;2023-05-18T00:44:17;4.17;;;3.77;;
13250;SDS011;6692;50.710;7.180;2023-05-18T00:46:18;5.67;;;3.63;;
13250;SDS011;6692;50.710;7.180;2023-05-18T00:48:18;3.93;;;3.50;;
13250;SDS011;6692;50.710;7.180;2023-05-18T00:50:19;5.80;;;3.50;;
13250;SDS011;6692;50.710;7.180;2023-05-18T00:52:21;4.83;;;3.57;;
13250;SDS011;6692;50.710;7.180;2023-05-18T00:54:21;7.10;;;3.57;;
13250;SDS011;6692;50.710;7.180;2023-05-18T00:56:22;5.97;;;3.80;;
13250;SDS011;6692;50.710;7.180;2023-05-18T00:58:23;5.87;;;3.70;;
13250;SDS011;6692;50.710;7.180;2023-05-18T01:00:23;4.27;;;3.57;;
13250;SDS011;6692;50.710;7.180;2023-05-18T01:02:25;6.77;;;4.20;;
13250;SDS011;6692;50.710;7.180;2023-05-18T01:04:25;3.73;;;3.43;;
13250;SDS011;6692;50.710;7.180;2023-05-18T01:06:27;4.07;;;3.40;;
13250;SDS011;6692;50.710;7.180;2023-05-18T01:08:27;4.73;;;3.60;;
13250;SDS011;6692;50.710;7.180;2023-05-18T01:10:28;6.60;;;3.80;;
13250;SDS011;6692;50.710;7.180;2023-05-18T01:12:32;5.27;;;3.63;;
13250;SDS011;6692;50.710;7.180;2023-05-18T01:14:36;3.50;;;3.20;;
13250;SDS011;6692;50.710;7.180;2023-05-18T01:16:58;4.30;;;3.90;;
13250;SDS011;6692;50.710;7.180;2023-05-18T01:18:59;6.63;;;3.57;;
13250;SDS011;6692;50.710;7.180;2023-05-18T01:21:07;3.83;;;3.27;;
13250;SDS011;6692;50.710;7.180;2023-05-18T01:23:22;3.27;;;3.00;;
13250;SDS011;6692;50.710;7.180;2023-05-18T01:25:24;3.53;;;3.23;;
13250;SDS011;6692;50.710;7.180;2023-05-18T01:27:21;4.80;;;3.70;;
13250;SDS011;6692;50.710;7.180;2023-05-18T01:29:21;9.60;;;3.73;;
13250;SDS011;6692;50.710;7.180;2023-05-18T01:31:22;4.80;;;3.60;;
13250;SDS011;6692;50.710;7.180;2023-05-18T01:33:22;5.07;;;3.50;;
13250;SDS011;6692;50.710;7.180;2023-05-18T01:35:24;4.63;;;3.80;;
13250;SDS011;6692;50.710;7.180;2023-05-18T01:37:25;3.87;;;3.47;;
13250;SDS011;6692;50.710;7.180;2023-05-18T01:39:25;4.70;;;3.80;;
13250;SDS011;6692;50.710;7.180;2023-05-18T01:41:26;4.87;;;3.83;;
13250;SDS011;6692;50.710;7.180;2023-05-18T01:43:28;4.53;;;3.57;;
13250;SDS011;6692;50.710;7.180;2023-05-18T01:45:27;4.83;;;3.60;;
13250;SDS011;6692;50.710;7.180;2023-05-18T01:47:28;4.10;;;3.67;;
13250;SDS011;6692;50.710;7.180;2023-05-18T01:49:31;3.67;;;3.37;;
13250;SDS011;6692;50.710;7.180;2023-05-18T01:51:36;7.27;;;3.87;;
13250;SDS011;6692;50.710;7.180;2023-05-18T01:53:38;4.87;;;3.50;;
13250;SDS011;6692;50.710;7.180;2023-05-18T01:55:37;6.67;;;3.80;;
13250;SDS011;6692;50.710;7.180;2023-05-18T01:57:40;3.93;;;3.57;;
13250;SDS011;6692;50.710;7.180;2023-05-18T01:59:39;3.97;;;3.60;;
13250;SDS011;6692;50.710;7.180;2023-05-18T02:01:40;4.70;;;3.40;;
13250;SDS011;6692;50.710;7.180;2023-05-18T02:03:42;3.40;;;3.10;;
13250;SDS011;6692;50.710;7.180;2023-05-18T02:05:41;4.13;;;3.50;;
13250;SDS011;6692;50.710;7.180;2023-05-18T02:07:42;4.37;;;3.37;;
13250;SDS011;6692;50.710;7.180;2023-05-18T02:09:43;4.77;;;3.47;;
13250;SDS011;6692;50.710;7.180;2023-05-18T02:11:43;5.43;;;3.60;;
13250;SDS011;6692;50.710;7.180;2023-05-18T02:13:44;5.80;;;3.83;;
13250;SDS011;6692;50.710;7.180;2023-05-18T02:15:45;4.37;;;3.63;;
13250;SDS011;6692;50.710;7.180;2023-05-18T02:17:45;4.10;;;3.67;;
13250;SDS011;6692;50.710;7.180;2023-05-18T02:19:46;4.83;;;3.43;;
13250;SDS011;6692;50.710;7.180;2023-05-18T02:21:47;5.60;;;3.80;;
13250;SDS011;6692;50.710;7.180;2023-05-18T02:23:48;5.33;;;3.80;;
13250;SDS011;6692;50.710;7.180;2023-05-18T02:25:49;7.13;;;3.63;;
13250;SDS011;6692;50.710;7.180;2023-05-18T02:27:49;4.10;;;3.70;;
13250;SDS011;6692;50.710;7.180;2023-05-18T02:29:50;4.97;;;3.83;;
13250;SDS011;6692;50.710;7.180;2023-05-18T02:31:51;4.67;;;4.27;;
13250;SDS011;6692;50.710;7.180;2023-05-18T02:33:52;5.73;;;4.20;;
13250;SDS011;6692;50.710;7.180;2023-05-18T02:35:53;4.37;;;3.60;;
13250;SDS011;6692;50.710;7.180;2023-05-18T02:37:54;5.37;;;4.00;;
13250;SDS011;6692;50.710;7.180;2023-05-18T02:39:56;6.03;;;3.67;;
13250;SDS011;6692;50.710;7.180;2023-05-18T02:41:57;4.27;;;3.87;;
13250;SDS011;6692;50.710;7.180;2023-05-18T02:43:58;3.93;;;3.53;;
13250;SDS011;6692;50.710;7.180;2023-05-18T02:45:58;5.53;;;3.63;;
13250;SDS011;6692;50.710;7.180;2023-05-18T02:47:59;4.73;;;3.80;;
13250;SDS011;6692;50.710;7.180;2023-05-18T02:50:00;4.93;;;3.60;;
13250;SDS011;6692;50.710;7.180;2023-05-18T02:52:01;6.60;;;3.80;;
13250;SDS011;6692;50.710;7.180;2023-05-18T02:54:03;7.43;;;4.10;;
13250;SDS011;6692;50.710;7.180;2023-05-18T02:56:04;3.87;;;3.20;;
13250;SDS011;6692;50.710;7.180;2023-05-18T02:58:05;6.37;;;4.00;;
13250;SDS011;6692;50.710;7.180;2023-05-18T03:00:06;6.60;;;3.73;;
13250;SDS011;6692;50.710;7.180;2023-05-18T03:02:09;4.13;;;3.70;;
13250;SDS011;6692;50.710;7.180;2023-05-18T03:04:10;4.47;;;3.77;;
13250;SDS011;6692;50.710;7.180;2023-05-18T03:06:11;4.73;;;3.63;;
13250;SDS011;6692;50.710;7.180;2023-05-18T03:08:12;4.97;;;3.80;;
13250;SDS011;6692;50.710;7.180;2023-05-18T03:10:12;4.57;;;3.43;;
13250;SDS011;6692;50.710;7.180;2023-05-18T03:12:13;7.23;;;4.10;;
13250;SDS011;6692;50.710;7.180;2023-05-18T03:14:14;4.63;;;3.70;;
13250;SDS011;6692;50.710;7.180;2023-05-18T03:16:14;5.13;;;3.53;;
13250;SDS011;6692;50.710;7.180;2023-05-18T03:18:15;4.53;;;3.80;;
13250;SDS011;6692;50.710;7.180;2023-05-18T03:20:16;5.67;;;4.90;;
13250;SDS011;6692;50.710;7.180;2023-05-18T03:22:16;5.83;;;4.90;;
13250;SDS011;6692;50.710;7.180;2023-05-18T03:24:18;5.33;;;4.83;;
13250;SDS011;6692;50.710;7.180;2023-05-18T03:26:18;5.70;;;5.20;;
13250;SDS011;6692;50.710;7.180;2023-05-18T03:28:19;6.37;;;5.77;;
13250;SDS011;6692;50.710;7.180;2023-05-18T03:30:20;6.50;;;5.60;;
13250;SDS011;6692;50.710;7.180;2023-05-18T03:32:20;6.53;;;5.90;;
13250;SDS011;6692;50.710;7.180;2023-05-18T03:34:21;6.67;;;5.93;;
13250;SDS011;6692;50.710;7.180;2023-05-18T03:36:22;8.10;;;5.80;;
13250;SDS011;6692;50.710;7.180;2023-05-18T03:38:23;6.47;;;5.77;;
13250;SDS011;6692;50.710;7.180;2023-05-18T03:40:24;6.17;;;5.47;;
13250;SDS011;6692;50.710;7.180;2023-05-18T03:42:24;6.40;;;5.20;;
13250;SDS011;6692;50.710;7.180;2023-05-18T03:44:25;6.53;;;5.60;;
13250;SDS011;6692;50.710;7.180;2023-05-18T03:46:26;5.50;;;4.70;;
13250;SDS011;6692;50.710;7.180;2023-05-18T03:48:26;5.67;;;4.83;;
13250;SDS011;6692;50.710;7.180;2023-05-18T03:50:27;4.97;;;4.40;;
13250;SDS011;6692;50.710;7.180;2023-05-18T03:52:28;4.53;;;3.77;;
13250;SDS011;6692;50.710;7.180;2023-05-18T03:54:29;5.23;;;4.27;;
13250;SDS011;6692;50.710;7.180;2023-05-18T03:56:30;5.23;;;3.90;;
13250;SDS011;6692;50.710;7.180;2023-05-18T03:58:30;4.03;;;3.73;;
13250;SDS011;6692;50.710;7.180;2023-05-18T04:00:31;4.87;;;3.83;;
13250;SDS011;6692;50.710;7.180;2023-05-18T04:02:32;4.10;;;3.70;;
13250;SDS011;6692;50.710;7.180;2023-05-18T04:04:32;4.53;;;3.73;;
13250;SDS011;6692;50.710;7.180;2023-05-18T04:06:33;4.70;;;4.23;;
13250;SDS011;6692;50.710;7.180;2023-05-18T04:08:34;5.17;;;3.90;;
13250;SDS011;6692;50.710;7.180;2023-05-18T04:10:35;4.87;;;4.10;;
13250;SDS011;6692;50.710;7.180;2023-05-18T04:12:36;4.57;;;3.77;;
13250;SDS011;6692;50.710;7.180;2023-05-18T04:14:36;4.17;;;3.77;;
13250;SDS011;6692;50.710;7.180;2023-05-18T04:16:37;4.47;;;3.83;;
13250;SDS011;6692;50.710;7.180;2023-05-18T04:18:39;4.30;;;3.50;;
13250;SDS011;6692;50.710;7.180;2023-05-18T04:20:40;5.53;;;3.90;;
13250;SDS011;6692;50.710;7.180;2023-05-18T04:22:43;4.20;;;3.73;;
13250;SDS011;6692;50.710;7.180;2023-05-18T04:24:42;4.10;;;3.70;;
13250;SDS011;6692;50.710;7.180;2023-05-18T04:26:43;4.03;;;3.70;;
13250;SDS011;6692;50.710;7.180;2023-05-18T04:28:44;4.47;;;3.77;;
13250;SDS011;6692;50.710;7.180;2023-05-18T04:30:44;4.20;;;3.60;;
13250;SDS011;6692;50.710;7.180;2023-05-18T04:32:45;4.57;;;3.80;;
13250;SDS011;6692;50.710;7.180;2023-05-18T04:34:46;4.90;;;4.00;;
13250;SDS011;6692;50.710;7.180;2023-05-18T04:36:46;5.67;;;4.43;;
13250;SDS011;6692;50.710;7.180;2023-05-18T04:38:47;6.40;;;4.00;;
13250;SDS011;6692;50.710;7.180;2023-05-18T04:40:48;5.57;;;4.20;;
13250;SDS011;6692;50.710;7.180;2023-05-18T04:42:48;4.30;;;3.83;;
13250;SDS011;6692;50.710;7.180;2023-05-18T04:44:49;4.40;;;3.60;;
13250;SDS011;6692;50.710;7.180;2023-05-18T04:46:50;4.20;;;3.77;;
13250;SDS011;6692;50.710;7.180;2023-05-18T04:48:50;4.83;;;3.97;;
13250;SDS011;6692;50.710;7.180;2023-05-18T04:50:51;5.13;;;4.17;;
13250;SDS011;6692;50.710;7.180;2023-05-18T04:52:52;4.07;;;3.67;;
13250;SDS011;6692;50.710;7.180;2023-05-18T04:54:54;3.80;;;3.50;;
13250;SDS011;6692;50.710;7.180;2023-05-18T04:56:55;3.70;;;3.40;;
13250;SDS011;6692;50.710;7.180;2023-05-18T04:58:56;3.80;;;3.40;;
13250;SDS011;6692;50.710;7.180;2023-05-18T05:00:56;5.33;;;3.93;;
13250;SDS011;6692;50.710;7.180;2023-05-18T05:02:57;4.47;;;4.07;;
13250;SDS011;6692;50.710;7.180;2023-05-18T05:04:58;4.10;;;3.70;;
13250;SDS011;6692;50.710;7.180;2023-05-18T05:06:58;5.87;;;3.90;;
13250;SDS011;6692;50.710;7.180;2023-05-18T05:08:59;4.20;;;3.80;;
13250;SDS011;6692;50.710;7.180;2023-05-18T05:11:01;5.80;;;4.03;;
13250;SDS011;6692;50.710;7.180;2023-05-18T05:13:01;4.03;;;3.50;;
13250;SDS011;6692;50.710;7.180;2023-05-18T05:15:02;5.37;;;3.70;;
13250;SDS011;6692;50.710;7.180;2023-05-18T05:17:03;4.63;;;3.57;;
13250;SDS011;6692;50.710;7.180;2023-05-18T05:19:04;4.73;;;3.87;;
13250;SDS011;6692;50.710;7.180;2023-05-18T05:21:04;4.97;;;3.90;;
13250;SDS011;6692;50.710;7.180;2023-05-18T05:23:06;4.90;;;3.83;;
13250;SDS011;6692;50.710;7.180;2023-05-18T05:25:07;5.83;;;4.50;;
13250;SDS011;6692;50.710;7.180;2023-05-18T05:27:08;3.90;;;3.60;;
13250;SDS011;6692;50.710;7.180;2023-05-18T05:29:08;4.50;;;4.03;;
13250;SDS011;6692;50.710;7.180;2023-05-18T05:31:10;5.07;;;4.00;;
13250;SDS011;6692;50.710;7.180;2023-05-18T05:33:10;4.43;;;4.00;;
13250;SDS011;6692;50.710;7.180;2023-05-18T05:35:11;5.37;;;4.87;;
13250;SDS011;6692;50.710;7.180;2023-05-18T05:37:12;5.13;;;4.63;;
13250;SDS011;6692;50.710;7.180;2023-05-18T05:39:12;5.30;;;4.80;;
13250;SDS011;6692;50.710;7.180;2023-05-18T05:41:13;6.27;;;5.00;;
13250;SDS011;6692;50.710;7.180;2023-05-18T05:43:14;5.30;;;4.80;;
13250;SDS011;6692;50.710;7.180;2023-05-18T05:45:15;7.17;;;4.80;;
13250;SDS011;6692;50.710;7.180;2023-05-18T05:47:15;5.17;;;4.67;;
13250;SDS011;6692;50.710;7.180;2023-05-18T05:49:16;6.17;;;5.57;;
13250;SDS011;6692;50.710;7.180;2023-05-18T05:51:16;5.50;;;4.97;;
13250;SDS011;6692;50.710;7.180;2023-05-18T05:53:17;5.83;;;5.23;;
13250;SDS011;6692;50.710;7.180;2023-05-18T05:55:18;8.03;;;5.40;;
13250;SDS011;6692;50.710;7.180;2023-05-18T05:57:18;7.53;;;6.00;;
13250;SDS011;6692;50.710;7.180;2023-05-18T05:59:19;9.63;;;6.03;;
13250;SDS011;6692;50.710;7.180;2023-05-18T06:01:20;8.43;;;4.90;;
13250;SDS011;6692;50.710;7.180;2023-05-18T06:03:21;6.70;;;5.30;;
13250;SDS011;6692;50.710;7.180;2023-05-18T06:05:21;8.97;;;5.50;;
13250;SDS011;6692;50.710;7.180;2023-05-18T06:07:23;7.80;;;5.77;;
13250;SDS011;6692;50.710;7.180;2023-05-18T06:09:23;7.37;;;5.47;;
13250;SDS011;6692;50.710;7.180;2023-05-18T06:11:24;5.87;;;5.37;;
13250;SDS011;6692;50.710;7.180;2023-05-18T06:13:25;6.53;;;5.53;;
13250;SDS011;6692;50.710;7.180;2023-05-18T06:15:26;6.80;;;5.43;;
13250;SDS011;6692;50.710;7.180;2023-05-18T06:17:26;7.50;;;5.50;;
13250;SDS011;6692;50.710;7.180;2023-05-18T06:19:27;7.97;;;5.90;;
13250;SDS011;6692;50.710;7.180;2023-05-18T06:21:28;5.87;;;5.20;;
13250;SDS011;6692;50.710;7.180;2023-05-18T06:23:29;8.23;;;6.27;;
13250;SDS011;6692;50.710;7.180;2023-05-18T06:25:30;8.80;;;5.23;;
13250;SDS011;6692;50.710;7.180;2023-05-18T06:27:30;6.07;;;5.47;;
13250;SDS011;6692;50.710;7.180;2023-05-18T06:29:31;7.87;;;5.20;;
13250;SDS011;6692;50.710;7.180;2023-05-18T06:31:32;6.50;;;5.50;;
13250;SDS011;6692;50.710;7.180;2023-05-18T06:33:32;6.17;;;5.53;;
13250;SDS011;6692;50.710;7.180;2023-05-18T06:35:34;7.93;;;5.40;;
13250;SDS011;6692;50.710;7.180;2023-05-18T06:37:34;8.43;;;5.63;;
13250;SDS011;6692;50.710;7.180;2023-05-18T06:39:35;5.70;;;5.10;;
13250;SDS011;6692;50.710;7.180;2023-05-18T06:41:36;6.43;;;5.00;;
13250;SDS011;6692;50.710;7.180;2023-05-18T06:43:37;7.67;;;5.20;;
13250;SDS011;6692;50.710;7.180;2023-05-18T06:45:38;6.23;;;5.40;;
13250;SDS011;6692;50.710;7.180;2023-05-18T06:47:38;5.83;;;5.23;;
13250;SDS011;6692;50.710;7.180;2023-05-18T06:49:39;6.03;;;5.43;;
13250;SDS011;6692;50.710;7.180;2023-05-18T06:51:40;5.43;;;4.87;;
13250;SDS011;6692;50.710;7.180;2023-05-18T06:53:41;6.63;;;4.90;;
13250;SDS011;6692;50.710;7.180;2023-05-18T06:55:41;7.60;;;5.40;;
13250;SDS011;6692;50.710;7.180;2023-05-18T06:57:42;8.77;;;5.10;;
13250;SDS011;6692;50.710;7.180;2023-05-18T06:59:43;6.03;;;4.80;;
13250;SDS011;6692;50.710;7.180;2023-05-18T07:01:43;6.00;;;5.20;;
13250;SDS011;6692;50.710;7.180;2023-05-18T07:03:45;8.57;;;6.00;;
13250;SDS011;6692;50.710;7.180;2023-05-18T07:05:45;6.57;;;5.60;;
13250;SDS011;6692;50.710;7.180;2023-05-18T07:07:46;8.47;;;5.80;;
13250;SDS011;6692;50.710;7.180;2023-05-18T07:09:47;10.93;;;5.93;;
13250;SDS011;6692;50.710;7.180;2023-05-18T07:11:47;7.80;;;5.27;;
13250;SDS011;6692;50.710;7.180;2023-05-18T07:13:48;8.10;;;6.10;;
13250;SDS011;6692;50.710;7.180;2023-05-18T07:15:49;6.77;;;5.23;;
13250;SDS011;6692;50.710;7.180;2023-05-18T07:17:49;11.90;;;5.40;;
13250;SDS011;6692;50.710;7.180;2023-05-18T07:19:50;7.47;;;5.40;;
13250;SDS011;6692;50.710;7.180;2023-05-18T07:21:50;8.17;;;5.57;;
13250;SDS011;6692;50.710;7.180;2023-05-18T07:23:51;7.23;;;5.63;;
13250;SDS011;6692;50.710;7.180;2023-05-18T07:25:52;10.33;;;5.53;;
13250;SDS011;6692;50.710;7.180;2023-05-18T07:27:53;8.40;;;5.73;;
13250;SDS011;6692;50.710;7.180;2023-05-18T07:29:53;7.17;;;5.27;;
13250;SDS011;6692;50.710;7.180;2023-05-18T07:31:54;13.37;;;5.50;;
13250;SDS011;6692;50.710;7.180;2023-05-18T07:33:54;12.20;;;5.40;;
13250;SDS011;6692;50.710;7.180;2023-05-18T07:35:56;6.07;;;5.03;;
13250;SDS011;6692;50.710;7.180;2023-05-18T07:37:56;6.70;;;5.23;;
13250;SDS011;6692;50.710;7.180;2023-05-18T07:39:57;6.87;;;4.67;;
13250;SDS011;6692;50.710;7.180;2023-05-18T07:41:58;7.83;;;5.40;;
13250;SDS011;6692;50.710;7.180;2023-05-18T07:43:59;8.57;;;5.57;;
13250;SDS011;6692;50.710;7.180;2023-05-18T07:46:00;6.07;;;4.77;;
13250;SDS011;6692;50.710;7.180;2023-05-18T07:48:01;7.13;;;4.70;;
13250;SDS011;6692;50.710;7.180;2023-05-18T07:50:02;6.90;;;4.60;;
13250;SDS011;6692;50.710;7.180;2023-05-18T07:52:05;5.67;;;5.07;;
13250;SDS011;6692;50.710;7.180;2023-05-18T07:54:05;6.83;;;5.33;;
13250;SDS011;6692;50.710;7.180;2023-05-18T07:56:06;7.37;;;5.40;;
13250;SDS011;6692;50.710;7.180;2023-05-18T07:58:07;7.07;;;4.90;;
13250;SDS011;6692;50.710;7.180;2023-05-18T08:00:08;8.20;;;5.53;;
13250;SDS011;6692;50.710;7.180;2023-05-18T08:02:10;6.13;;;4.50;;
13250;SDS011;6692;50.710;7.180;2023-05-18T08:04:10;11.30;;;5.47;;
13250;SDS011;6692;50.710;7.180;2023-05-18T08:06:11;7.50;;;5.03;;
13250;SDS011;6692;50.710;7.180;2023-05-18T08:08:12;7.87;;;5.30;;
13250;SDS011;6692;50.710;7.180;2023-05-18T08:10:12;9.03;;;5.33;;
13250;SDS011;6692;50.710;7.180;2023-05-18T08:12:13;6.40;;;5.07;;
13250;SDS011;6692;50.710;7.180;2023-05-18T08:14:13;7.07;;;4.80;;
13250;SDS011;6692;50.710;7.180;2023-05-18T08:16:14;8.97;;;4.57;;
13250;SDS011;6692;50.710;7.180;2023-05-18T08:18:15;9.13;;;4.90;;
13250;SDS011;6692;50.710;7.180;2023-05-18T08:20:16;6.63;;;4.73;;
13250;SDS011;6692;50.710;7.180;2023-05-18T08:22:17;6.53;;;4.17;;
13250;SDS011;6692;50.710;7.180;2023-05-18T08:24:18;7.13;;;4.53;;
13250;SDS011;6692;50.710;7.180;2023-05-18T08:26:19;6.17;;;4.60;;
13250;SDS011;6692;50.710;7.180;2023-05-18T08:28:20;9.10;;;4.87;;
13250;SDS011;6692;50.710;7.180;2023-05-18T08:30:20;10.40;;;4.60;;
13250;SDS011;6692;50.710;7.180;2023-05-18T08:32:21;7.13;;;4.60;;
13250;SDS011;6692;50.710;7.180;2023-05-18T08:34:22;5.30;;;4.60;;
13250;SDS011;6692;50.710;7.180;2023-05-18T08:36:22;5.73;;;4.33;;
13250;SDS011;6692;50.710;7.180;2023-05-18T08:38:24;5.40;;;4.57;;
13250;SDS011;6692;50.710;7.180;2023-05-18T08:40:25;10.50;;;4.23;;
13250;SDS011;6692;50.710;7.180;2023-05-18T08:42:29;6.83;;;3.80;;
13250;SDS011;6692;50.710;7.180;2023-05-18T08:44:33;10.13;;;4.63;;
13250;SDS011;6692;50.710;7.180;2023-05-18T08:46:34;7.90;;;4.50;;
13250;SDS011;6692;50.710;7.180;2023-05-18T08:48:34;5.90;;;4.17;;
13250;SDS011;6692;50.710;7.180;2023-05-18T08:50:35;9.20;;;4.00;;
13250;SDS011;6692;50.710;7.180;2023-05-18T08:52:36;7.57;;;4.00;;
13250;SDS011;6692;50.710;7.180;2023-05-18T08:54:37;8.80;;;4.27;;
13250;SDS011;6692;50.710;7.180;2023-05-18T08:56:38;6.03;;;3.90;;
13250;SDS011;6692;50.710;7.180;2023-05-18T08:58:43;6.63;;;4.10;;
13250;SDS011;6692;50.710;7.180;2023-05-18T09:00:44;5.93;;;3.70;;
13250;SDS011;6692;50.710;7.180;2023-05-18T09:02:45;6.50;;;4.40;;
13250;SDS011;6692;50.710;7.180;2023-05-18T09:04:45;7.60;;;3.80;;
13250;SDS011;6692;50.710;7.180;2023-05-18T09:06:46;7.63;;;3.73;;
13250;SDS011;6692;50.710;7.180;2023-05-18T09:08:47;7.87;;;3.90;;
13250;SDS011;6692;50.710;7.180;2023-05-18T09:10:47;5.90;;;3.77;;
13250;SDS011;6692;50.710;7.180;2023-05-18T09:12:48;6.20;;;3.80;;
13250;SDS011;6692;50.710;7.180;2023-05-18T09:14:49;6.03;;;3.50;;
13250;SDS011;6692;50.710;7.180;2023-05-18T09:16:50;7.37;;;4.00;;
13250;SDS011;6692;50.710;7.180;2023-05-18T09:18:50;6.90;;;4.00;;
13250;SDS011;6692;50.710;7.180;2023-05-18T09:20:51;7.13;;;3.67;;
13250;SDS011;6692;50.710;7.180;2023-05-18T09:22:52;8.60;;;3.80;;
13250;SDS011;6692;50.710;7.180;2023-05-18T09:24:53;7.23;;;3.50;;
13250;SDS011;6692;50.710;7.180;2023-05-18T09:26:53;5.90;;;3.70;;
13250;SDS011;6692;50.710;7.180;2023-05-18T09:28:54;5.57;;;3.63;;
13250;SDS011;6692;50.710;7.180;2023-05-18T09:30:55;5.43;;;3.53;;
13250;SDS011;6692;50.710;7.180;2023-05-18T09:32:56;4.67;;;3.27;;
13250;SDS011;6692;50.710;7.180;2023-05-18T09:34:56;5.63;;;3.47;;
13250;SDS011;6692;50.710;7.180;2023-05-18T09:36:57;5.43;;;2.97;;
13250;SDS011;6692;50.710;7.180;2023-05-18T09:38:58;5.13;;;3.23;;
13250;SDS011;6692;50.710;7.180;2023-05-18T09:40:59;4.17;;;3.07;;
13250;SDS011;6692;50.710;7.180;2023-05-18T09:42:59;5.00;;;3.40;;
13250;SDS011;6692;50.710;7.180;2023-05-18T09:45:00;3.93;;;2.90;;
13250;SDS011;6692;50.710;7.180;2023-05-18T09:47:01;4.57;;;3.13;;
13250;SDS011;6692;50.710;7.180;2023-05-18T09:49:02;6.83;;;3.23;;
13250;SDS011;6692;50.710;7.180;2023-05-18T09:51:04;3.00;;;2.70;;
13250;SDS011;6692;50.710;7.180;2023-05-18T09:53:06;5.27;;;3.17;;
13250;SDS011;6692;50.710;7.180;2023-05-18T09:55:06;3.07;;;2.77;;
13250;SDS011;6692;50.710;7.180;2023-05-18T09:57:07;3.90;;;3.17;;
13250;SDS011;6692;50.710;7.180;2023-05-18T09:59:09;4.87;;;3.50;;
13250;SDS011;6692;50.710;7.180;2023-05-18T10:01:10;6.70;;;3.30;;
13250;SDS011;6692;50.710;7.180;2023-05-18T10:03:16;4.63;;;3.60;;
13250;SDS011;6692;50.710;7.180;2023-05-18T10:05:17;4.30;;;3.20;;
13250;SDS011;6692;50.710;7.180;2023-05-18T10:07:18;6.57;;;3.33;;
13250;SDS011;6692;50.710;7.180;2023-05-18T10:09:18;8.17;;;3.50;;
13250;SDS011;6692;50.710;7.180;2023-05-18T10:11:19;6.53;;;3.50;;
13250;SDS011;6692;50.710;7.180;2023-05-18T10:13:20;7.23;;;3.80;;
13250;SDS011;6692;50.710;7.180;2023-05-18T10:15:21;7.60;;;3.50;;
13250;SDS011;6692;50.710;7.180;2023-05-18T10:17:21;8.47;;;3.60;;
13250;SDS011;6692;50.710;7.180;2023-05-18T10:19:23;4.13;;;3.00;;
13250;SDS011;6692;50.710;7.180;2023-05-18T10:21:23;3.80;;;3.00;;
13250;SDS011;6692;50.710;7.180;2023-05-18T10:23:24;5.77;;;2.70;;
13250;SDS011;6692;50.710;7.180;2023-05-18T10:25:25;8.27;;;3.40;;
13250;SDS011;6692;50.710;7.180;2023-05-18T10:27:26;6.33;;;3.03;;
13250;SDS011;6692;50.710;7.180;2023-05-18T10:29:28;5.60;;;3.27;;
13250;SDS011;6692;50.710;7.180;2023-05-18T10:31:30;4.97;;;3.07;;
13250;SDS011;6692;50.710;7.180;2023-05-18T10:33:30;5.37;;;3.40;;
13250;SDS011;6692;50.710;7.180;2023-05-18T10:35:32;4.67;;;3.23;;
13250;SDS011;6692;50.710;7.180;2023-05-18T10:37:34;5.00;;;3.13;;
13250;SDS011;6692;50.710;7.180;2023-05-18T10:39:35;5.03;;;3.17;;
13250;SDS011;6692;50.710;7.180;2023-05-18T10:41:34;9.47;;;3.63;;
13250;SDS011;6692;50.710;7.180;2023-05-18T10:43:35;8.20;;;3.67;;
13250;SDS011;6692;50.710;7.180;2023-05-18T10:45:36;5.37;;;3.43;;
13250;SDS011;6692;50.710;7.180;2023-05-18T10:47:36;5.27;;;3.43;;
13250;SDS011;6692;50.710;7.180;2023-05-18T10:49:39;6.47;;;3.23;;
13250;SDS011;6692;50.710;7.180;2023-05-18T10:51:40;4.87;;;3.23;;
13250;SDS011;6692;50.710;7.180;2023-05-18T10:53:40;4.60;;;3.43;;
13250;SDS011;6692;50.710;7.180;2023-05-18T10:55:40;4.53;;;3.33;;
13250;SDS011;6692;50.710;7.180;2023-05-18T10:57:43;3.97;;;3.17;;
13250;SDS011;6692;50.710;7.180;2023-05-18T10:59:43;5.27;;;3.07;;
13250;SDS011;6692;50.710;7.180;2023-05-18T11:01:43;5.63;;;3.20;;
13250;SDS011;6692;50.710;7.180;2023-05-18T11:03:44;8.40;;;3.13;;
13250;SDS011;6692;50.710;7.180;2023-05-18T11:05:48;4.60;;;3.10;;
13250;SDS011;6692;50.710;7.180;2023-05-18T11:07:49;6.53;;;3.20;;
13250;SDS011;6692;50.710;7.180;2023-05-18T11:09:50;5.70;;;3.47;;
13250;SDS011;6692;50.710;7.180;2023-05-18T11:11:52;4.87;;;3.17;;
13250;SDS011;6692;50.710;7.180;2023-05-18T11:13:54;4.63;;;2.93;;
13250;SDS011;6692;50.710;7.180;2023-05-18T11:16:02;6.63;;;3.10;;
13250;SDS011;6692;50.710;7.180;2023-05-18T11:20:11;5.97;;;3.17;;
13250;SDS011;6692;50.710;7.180;2023-05-18T11:22:13;5.20;;;2.80;;
13250;SDS011;6692;50.710;7.180;2023-05-18T11:26:26;3.93;;;2.93;;
13250;SDS011;6692;50.710;7.180;2023-05-18T11:28:24;6.10;;;3.20;;
13250;SDS011;6692;50.710;7.180;2023-05-18T11:30:26;5.17;;;3.00;;
13250;SDS011;6692;50.710;7.180;2023-05-18T11:32:28;4.67;;;2.80;;
13250;SDS011;6692;50.710;7.180;2023-05-18T11:34:33;4.00;;;2.70;;
13250;SDS011;6692;50.710;7.180;2023-05-18T11:36:43;2.87;;;2.43;;
13250;SDS011;6692;50.710;7.180;2023-05-18T11:38:52;5.33;;;2.80;;
13250;SDS011;6692;50.710;7.180;2023-05-18T11:40:53;4.63;;;2.80;;
13250;SDS011;6692;50.710;7.180;2023-05-18T11:42:56;5.37;;;3.43;;
13250;SDS011;6692;50.710;7.180;2023-05-18T11:44:57;4.63;;;2.90;;
13250;SDS011;6692;50.710;7.180;2023-05-18T11:47:02;4.10;;;2.57;;
13250;SDS011;6692;50.710;7.180;2023-05-18T11:49:03;4.23;;;3.07;;
13250;SDS011;6692;50.710;7.180;2023-05-18T11:51:03;6.27;;;3.17;;
13250;SDS011;6692;50.710;7.180;2023-05-18T11:53:04;4.17;;;3.00;;
13250;SDS011;6692;50.710;7.180;2023-05-18T11:55:05;6.43;;;2.87;;
13250;SDS011;6692;50.710;7.180;2023-05-18T11:57:06;7.87;;;3.13;;
13250;SDS011;6692;50.710;7.180;2023-05-18T11:59:10;4.90;;;2.70;;
13250;SDS011;6692;50.710;7.180;2023-05-18T12:01:12;4.90;;;3.07;;
13250;SDS011;6692;50.710;7.180;2023-05-18T12:03:12;3.87;;;2.97;;
13250;SDS011;6692;50.710;7.180;2023-05-18T12:05:13;5.00;;;2.90;;
13250;SDS011;6692;50.710;7.180;2023-05-18T12:07:14;3.43;;;2.60;;
13250;SDS011;6692;50.710;7.180;2023-05-18T12:09:14;3.37;;;2.87;;
13250;SDS011;6692;50.710;7.180;2023-05-18T12:11:16;4.30;;;2.77;;
13250;SDS011;6692;50.710;7.180;2023-05-18T12:13:17;4.53;;;3.07;;
13250;SDS011;6692;50.710;7.180;2023-05-18T12:15:21;5.37;;;3.23;;
13250;SDS011;6692;50.710;7.180;2023-05-18T12:17:21;6.17;;;3.00;;
13250;SDS011;6692;50.710;7.180;2023-05-18T12:19:22;5.37;;;2.70;;
13250;SDS011;6692;50.710;7.180;2023-05-18T12:21:23;3.70;;;3.00;;
13250;SDS011;6692;50.710;7.180;2023-05-18T12:23:33;3.67;;;2.70;;
13250;SDS011;6692;50.710;7.180;2023-05-18T12:25:31;4.77;;;2.73;;